Time;durP1;ratioP1;P1;durP2;ratioP2;P2;SDS_P1;SDS_P2;PMS_P1;PMS_P2;Temp;Humidity;BMP_temperature;BMP_pressure;BME280_temperature;BME280_humidity;BME280_pressure;Samples;Min_cycle;Max_cycle;Signal;HPM_P1;HPM_P2
2022/02/22 00:00:32;;;;;;;42.88;32.20;;;;;;;7.13;100.00;98988.06;4989882;28;20041;-62
2022/02/22 00:02:57;;;;;;;46.25;33.53;;;;;;;7.80;100.00;99071.06;4991044;28;20054;-62
2022/02/22 00:05:23;;;;;;;47.55;34.08;;;;;;;7.82;100.00;99103.00;4990750;28;20081;-62
2022/02/22 00:07:49;;;;;;;46.78;33.25;;;;;;;7.93;100.00;99091.72;4991249;28;20053;-64
2022/02/22 00:10:15;;;;;;;48.65;34.75;;;;;;;7.86;100.00;99103.75;4991132;28;20477;-61
2022/02/22 00:12:42;;;;;;;46.78;33.40;;;;;;;7.72;100.00;99100.84;4991060;28;20129;-62
2022/02/22 00:15:08;;;;;;;45.30;34.13;;;;;;;7.56;100.00;99095.41;4987731;28;20031;-62
2022/02/22 00:17:34;;;;;;;46.78;33.20;;;;;;;7.46;100.00;99095.72;4971458;28;20035;-63
2022/02/22 00:20:01;;;;;;;46.90;33.58;;;;;;;7.58;100.00;99091.13;4970250;28;20173;-64
2022/02/22 00:22:27;;;;;;;43.45;33.72;;;;;;;7.46;100.00;99094.03;4971632;28;20034;-64
2022/02/22 00:24:52;;;;;;;47.30;33.25;;;;;;;7.31;100.00;99048.16;4971506;28;20027;-64
2022/02/22 00:27:18;;;;;;;43.85;33.30;;;;;;;7.19;100.00;99031.63;4971391;28;20030;-64
2022/02/22 00:29:43;;;;;;;44.90;32.42;;;;;;;7.13;100.00;99031.00;4971699;28;20425;-65
2022/02/22 00:32:09;;;;;;;46.80;34.35;;;;;;;7.07;100.00;99067.41;4970006;28;20533;-64
2022/02/22 00:34:34;;;;;;;49.53;33.10;;;;;;;6.64;100.00;98974.31;4970265;28;20085;-64
2022/02/22 00:37:00;;;;;;;47.30;33.53;;;;;;;7.29;100.00;99065.06;4970246;28;20051;-64
2022/02/22 00:39:25;;;;;;;45.85;33.40;;;;;;;6.58;100.00;99017.41;4971563;28;20485;-64
2022/02/22 00:41:51;;;;;;;52.00;34.13;;;;;;;6.53;100.00;99005.78;4971309;28;20027;-64
2022/02/22 00:44:16;;;;;;;48.40;34.30;;;;;;;6.64;100.00;99031.56;4971492;28;20034;-65
2022/02/22 00:46:42;;;;;;;47.08;34.60;;;;;;;6.82;100.00;99058.84;4969941;28;20544;-65
2022/02/22 00:49:08;;;;;;;46.47;33.13;;;;;;;6.88;100.00;99064.56;4971234;28;20039;-64
2022/02/22 00:51:35;;;;;;;43.22;32.08;;;;;;;6.82;100.00;99020.94;4971425;28;20125;-64
2022/02/22 00:54:00;;;;;;;45.95;32.78;;;;;;;6.90;100.00;99046.81;4971286;28;20042;-64
2022/02/22 00:56:26;;;;;;;42.95;34.00;;;;;;;6.44;100.00;98999.28;4970005;28;20035;-64
2022/02/22 00:58:51;;;;;;;51.38;35.35;;;;;;;6.61;100.00;99004.72;4971551;28;20050;-65
2022/02/22 01:03:46;;;;;;;49.13;34.65;;;;;;;6.74;100.00;99041.38;4605054;28;10001857;-69
2022/02/22 01:06:11;;;;;;;44.22;32.13;;;;;;;7.07;100.00;99053.94;5010282;28;20045;-67
2022/02/22 01:08:37;;;;;;;46.78;33.20;;;;;;;6.91;100.00;99023.22;5008927;28;20414;-67
2022/02/22 01:11:02;;;;;;;47.20;33.42;;;;;;;6.81;100.00;99025.16;5010093;28;20026;-66
2022/02/22 01:13:28;;;;;;;42.38;31.70;;;;;;;6.84;100.00;99052.03;5010298;28;20399;-66
2022/02/22 01:15:53;;;;;;;43.13;31.55;;;;;;;6.74;100.00;99046.44;5009930;28;20088;-67
2022/02/22 01:18:19;;;;;;;46.00;31.27;;;;;;;6.73;100.00;99022.06;5014035;28;20038;-66
2022/02/22 01:20:44;;;;;;;46.38;31.08;;;;;;;6.54;100.00;99015.84;5014262;28;20026;-65
2022/02/22 01:23:09;;;;;;;42.83;31.90;;;;;;;6.67;100.00;99024.75;5004311;28;20422;-66
2022/02/22 01:25:35;;;;;;;42.85;32.72;;;;;;;6.47;100.00;98996.69;5009092;28;20473;-66
2022/02/22 01:28:00;;;;;;;44.13;32.17;;;;;;;6.80;100.00;99005.84;4993992;28;20550;-66
2022/02/22 01:30:26;;;;;;;45.35;33.13;;;;;;;6.72;100.00;99012.81;4994156;28;20034;-66
2022/02/22 01:32:51;;;;;;;45.63;33.53;;;;;;;6.33;100.00;98986.16;5010005;28;20041;-65
2022/02/22 01:35:17;;;;;;;43.65;33.30;;;;;;;6.35;100.00;98976.84;5013825;28;20026;-66
2022/02/22 01:37:42;;;;;;;44.35;32.95;;;;;;;6.37;100.00;99007.06;5028730;28;20502;-65
2022/02/22 01:40:09;;;;;;;42.38;32.75;;;;;;;6.22;100.00;98975.50;5010444;28;20137;-66
2022/02/22 01:42:34;;;;;;;44.38;33.10;;;;;;;6.49;100.00;98986.56;5006563;28;20033;-66
2022/02/22 01:45:00;;;;;;;48.28;34.22;;;;;;;6.37;100.00;98984.38;5013693;28;20084;-66
2022/02/22 01:47:26;;;;;;;43.53;31.90;;;;;;;6.62;100.00;98987.84;5010825;28;20025;-65
2022/02/22 01:49:51;;;;;;;46.92;32.20;;;;;;;6.82;100.00;99003.28;5008176;28;20034;-66
2022/02/22 01:52:17;;;;;;;46.38;33.65;;;;;;;6.51;100.00;98978.09;5011964;28;20045;-66
2022/02/22 01:54:44;;;;;;;46.00;32.53;;;;;;;6.36;100.00;98962.53;5012966;28;20410;-66
2022/02/22 01:57:10;;;;;;;43.60;32.05;;;;;;;6.71;100.00;98987.63;4994554;28;20502;-66
2022/02/22 01:59:35;;;;;;;49.15;33.25;;;;;;;6.95;100.00;98987.72;4993707;28;20026;-66
2022/02/22 02:02:01;;;;;;;45.00;32.38;;;;;;;6.69;100.00;98959.06;5001632;28;20053;-66
2022/02/22 02:04:29;;;;;;;44.78;31.42;;;;;;;6.55;100.00;98956.09;5013348;28;20037;-66
2022/02/22 02:06:56;;;;;;;47.67;31.75;;;;;;;6.57;100.00;98984.66;5012993;28;20038;-66
2022/02/22 02:09:22;;;;;;;54.80;32.28;;;;;;;6.60;100.00;98955.09;5012817;28;20036;-66
2022/02/22 02:11:53;;;;;;;43.15;31.42;;;;;;;7.02;100.00;98980.78;5013265;28;20029;-67
2022/02/22 02:14:18;;;;;;;46.65;32.60;;;;;;;6.51;100.00;98932.63;5013233;28;20030;-67
2022/02/22 02:16:44;;;;;;;45.90;31.23;;;;;;;6.93;100.00;98970.97;5013191;28;20080;-67
2022/02/22 02:19:12;;;;;;;48.35;31.92;;;;;;;6.72;100.00;98980.00;5011609;28;20034;-67
2022/02/22 02:21:39;;;;;;;45.75;31.73;;;;;;;6.95;100.00;98979.31;5012669;28;20036;-66
2022/02/22 02:24:12;;;;;;;44.95;31.70;;;;;;;6.78;100.00;98946.97;5012346;28;20068;-66
2022/02/22 02:26:38;;;;;;;46.72;31.02;;;;;;;6.84;100.00;98969.53;5012158;28;20086;-66
2022/02/22 02:29:13;;;;;;;44.80;31.98;;;;;;;6.88;100.00;98957.63;5012396;28;20026;-66
2022/02/22 02:31:40;;;;;;;42.38;30.70;;;;;;;6.81;100.00;98946.06;5012939;28;20593;-66
2022/02/22 02:34:07;;;;;;;45.17;30.60;;;;;;;6.91;100.00;98970.19;5012401;28;20445;-67
2022/02/22 02:36:34;;;;;;;42.25;29.85;;;;;;;7.03;100.00;98958.88;5012356;28;20041;-66
2022/02/22 02:39:01;;;;;;;42.85;30.63;;;;;;;6.78;100.00;98931.00;5012565;28;20025;-66
2022/02/22 02:41:26;;;;;;;40.72;29.42;;;;;;;7.06;100.00;98938.56;5012665;28;20045;-66
2022/02/22 02:43:52;;;;;;;41.10;29.60;;;;;;;6.54;100.00;98939.28;5012528;28;20117;-65
2022/02/22 02:46:17;;;;;;;44.80;31.73;;;;;;;6.59;100.00;98930.72;5012391;28;20125;-66
2022/02/22 02:48:43;;;;;;;40.65;31.00;;;;;;;6.67;100.00;98964.16;5012425;28;20535;-67
2022/02/22 02:51:08;;;;;;;45.65;30.38;;;;;;;6.72;100.00;98961.47;5012181;28;20494;-66
2022/02/22 02:53:34;;;;;;;41.80;29.80;;;;;;;6.74;100.00;98939.53;5012274;28;20022;-66
2022/02/22 02:55:59;;;;;;;43.15;28.85;;;;;;;6.74;100.00;98935.31;5012300;28;20033;-66
2022/02/22 02:58:25;;;;;;;41.15;30.40;;;;;;;6.90;100.00;98959.25;5027571;28;20026;-66
2022/02/22 03:00:50;;;;;;;41.40;29.92;;;;;;;6.80;100.00;98955.34;5012364;28;20038;-66
2022/02/22 03:03:16;;;;;;;43.22;29.73;;;;;;;6.73;100.00;98930.31;5012340;28;20054;-66
2022/02/22 03:05:41;;;;;;;39.97;30.02;;;;;;;6.89;100.00;98950.00;5010500;28;20490;-66
2022/02/22 03:08:06;;;;;;;42.13;30.38;;;;;;;6.72;100.00;98916.03;5012036;28;20030;-66
2022/02/22 03:10:32;;;;;;;44.50;31.13;;;;;;;6.91;100.00;98955.03;5012132;28;20030;-66
2022/02/22 03:12:57;;;;;;;44.47;31.63;;;;;;;7.06;100.00;98951.19;5012035;28;20033;-66
2022/02/22 03:15:23;;;;;;;44.25;31.13;;;;;;;7.04;100.00;98941.16;5011785;28;20556;-66
2022/02/22 03:17:48;;;;;;;43.22;31.08;;;;;;;6.56;100.00;98902.19;5010897;28;20548;-65
2022/02/22 03:20:13;;;;;;;45.03;30.27;;;;;;;6.86;100.00;98892.00;5007996;28;20027;-67
2022/02/22 03:22:43;;;;;;;43.47;30.65;;;;;;;7.43;100.00;98957.59;4990625;28;20038;-65
2022/02/22 03:25:09;;;;;;;43.40;30.48;;;;;;;7.01;100.00;98926.09;4992259;28;20026;-66
2022/02/22 03:27:35;;;;;;;40.65;29.27;;;;;;;7.17;100.00;98934.03;4992463;28;20026;-66
2022/02/22 03:30:00;;;;;;;46.67;31.30;;;;;;;6.98;100.00;98931.22;4992012;28;20414;-66
2022/02/22 03:32:26;;;;;;;41.72;30.73;;;;;;;7.07;100.00;98948.66;5007088;28;20089;-66
2022/02/22 03:34:51;;;;;;;39.92;30.05;;;;;;;7.10;100.00;98927.50;4991955;28;20026;-65
2022/02/22 03:37:17;;;;;;;43.40;31.17;;;;;;;7.26;100.00;98953.94;4991786;28;20356;-65
2022/02/22 03:39:42;;;;;;;45.97;30.73;;;;;;;7.28;100.00;98952.19;5006483;28;20034;-65
2022/02/22 03:42:07;;;;;;;43.58;30.40;;;;;;;7.15;100.00;98940.81;4991404;28;20026;-66
2022/02/22 03:44:33;;;;;;;50.90;31.58;;;;;;;7.13;100.00;98928.22;4991541;28;20042;-65
2022/02/22 03:46:58;;;;;;;43.70;31.02;;;;;;;7.24;100.00;98958.22;4991771;28;20066;-65
2022/02/22 03:49:24;;;;;;;48.55;33.45;;;;;;;7.22;100.00;98958.28;4991384;28;20117;-64
2022/02/22 03:51:49;;;;;;;44.92;32.13;;;;;;;7.01;100.00;98944.59;5006688;28;20034;-66
2022/02/22 03:54:14;;;;;;;41.88;29.98;;;;;;;7.10;100.00;98928.31;4991833;28;20038;-66
2022/02/22 03:56:40;;;;;;;43.05;29.80;;;;;;;7.12;100.00;98921.53;4991502;28;20030;-66
2022/02/22 03:59:05;;;;;;;40.90;30.00;;;;;;;7.41;100.00;98968.63;4991313;28;20411;-66
2022/02/22 04:01:31;;;;;;;42.30;28.90;;;;;;;7.40;100.00;98966.97;4991686;28;20117;-66
2022/02/22 04:03:57;;;;;;;46.20;30.00;;;;;;;7.46;100.00;98974.38;4991168;28;20055;-65
2022/02/22 04:06:22;;;;;;;42.28;29.25;;;;;;;7.11;100.00;98911.47;4993961;28;20065;-65
2022/02/22 04:08:48;;;;;;;41.03;30.05;;;;;;;7.49;100.00;98962.44;5011332;28;20159;-66
2022/02/22 04:11:13;;;;;;;42.45;29.77;;;;;;;7.41;100.00;98963.56;5011122;28;20117;-65
2022/02/22 04:13:38;;;;;;;42.60;29.75;;;;;;;7.36;100.00;98970.47;5009640;28;20546;-66
2022/02/22 04:16:04;;;;;;;38.63;30.00;;;;;;;7.28;100.00;98942.91;5011330;28;20033;-65
2022/02/22 04:18:30;;;;;;;48.05;29.35;;;;;;;7.07;100.00;98936.00;5010768;28;20030;-65
2022/02/22 04:20:55;;;;;;;40.78;30.45;;;;;;;7.06;100.00;98928.47;5010683;28;20037;-65
2022/02/22 04:23:21;;;;;;;45.55;31.90;;;;;;;7.19;100.00;98977.75;5010950;28;20038;-66
2022/02/22 04:25:48;;;;;;;54.35;34.70;;;;;;;7.27;100.00;98966.53;5010556;28;20041;-66
2022/02/22 04:28:13;;;;;;;55.15;35.35;;;;;;;7.30;100.00;98940.34;5009302;28;20036;-65
2022/02/22 04:30:39;;;;;;;54.10;34.00;;;;;;;7.39;100.00;98967.88;5010698;28;20034;-65
2022/02/22 04:33:04;;;;;;;43.53;31.17;;;;;;;7.26;100.00;98959.84;5010247;28;20033;-65
2022/02/22 04:35:30;;;;;;;38.63;28.67;;;;;;;7.21;100.00;98951.56;5010283;28;20030;-64
2022/02/22 04:37:55;;;;;;;39.10;28.58;;;;;;;7.31;100.00;98957.16;5010831;28;20030;-65
2022/02/22 04:40:21;;;;;;;39.30;27.80;;;;;;;7.42;100.00;98962.69;5010259;28;20124;-65
2022/02/22 04:42:49;;;;;;;42.90;28.55;;;;;;;7.50;100.00;98964.13;5010442;28;20473;-65
2022/02/22 04:45:15;;;;;;;38.97;28.33;;;;;;;7.14;100.00;98965.25;5010655;28;20069;-66
2022/02/22 04:47:41;;;;;;;42.20;29.27;;;;;;;6.92;100.00;98939.81;5024705;28;20053;-64
2022/02/22 04:50:06;;;;;;;41.28;30.48;;;;;;;6.73;100.00;98931.16;5010249;28;20025;-65
2022/02/22 04:52:32;;;;;;;41.53;29.70;;;;;;;6.91;100.00;98932.28;5012888;28;20030;-65
2022/02/22 04:54:59;;;;;;;40.83;30.92;;;;;;;6.81;100.00;98931.72;5014504;28;20030;-65
2022/02/22 04:57:24;;;;;;;42.90;30.80;;;;;;;7.03;100.00;98956.34;5014441;28;20037;-65
2022/02/22 04:59:50;;;;;;;44.38;30.55;;;;;;;7.06;100.00;98957.09;5014429;28;20026;-65
2022/02/22 05:02:15;;;;;;;37.88;29.58;;;;;;;6.99;100.00;98958.97;5013737;28;20108;-66
2022/02/22 05:04:41;;;;;;;44.38;30.73;;;;;;;6.65;100.00;98917.09;5013895;28;20069;-65
2022/02/22 05:07:06;;;;;;;41.53;29.27;;;;;;;6.83;100.00;98941.81;5013777;28;20030;-64
2022/02/22 05:09:31;;;;;;;40.72;29.25;;;;;;;6.69;100.00;98938.84;5014254;28;20029;-66
2022/02/22 05:11:57;;;;;;;41.15;30.42;;;;;;;6.81;100.00;98944.34;5013557;28;20033;-64
2022/02/22 05:14:22;;;;;;;44.67;31.27;;;;;;;7.02;100.00;98973.22;5014181;28;20033;-64
2022/02/22 05:16:48;;;;;;;43.83;31.13;;;;;;;6.96;100.00;98976.75;5013663;28;20045;-63
2022/02/22 05:19:13;;;;;;;41.72;31.45;;;;;;;7.07;100.00;98973.09;5013718;28;20030;-65
2022/02/22 05:21:41;;;;;;;42.65;30.75;;;;;;;7.14;100.00;98955.16;5013715;28;20033;-66
2022/02/22 05:24:07;;;;;;;47.17;32.28;;;;;;;6.96;100.00;98933.81;5013619;28;20030;-64
2022/02/22 05:26:33;;;;;;;49.08;34.38;;;;;;;7.11;100.00;98964.53;5013438;28;20030;-65
2022/02/22 05:28:59;;;;;;;46.65;34.75;;;;;;;7.04;100.00;98946.19;5013424;28;20033;-64
2022/02/22 05:31:25;;;;;;;49.67;35.38;;;;;;;7.14;100.00;98941.69;5013303;28;20109;-65
2022/02/22 05:33:51;;;;;;;48.53;34.45;;;;;;;7.45;100.00;98977.75;5011988;28;20053;-66
2022/02/22 05:36:19;;;;;;;47.50;34.45;;;;;;;7.52;100.00;98967.44;5013485;28;20080;-65
2022/02/22 05:38:45;;;;;;;48.28;34.58;;;;;;;7.53;100.00;98988.47;5012213;28;20411;-65
2022/02/22 05:41:10;;;;;;;46.95;30.60;;;;;;;9.20;100.00;98984.22;5013205;28;20048;-64
2022/02/22 05:43:36;;;;;;;56.97;37.60;;;;;;;7.38;100.00;98973.78;4995416;28;20035;-66
2022/02/22 05:46:01;;;;;;;54.72;38.08;;;;;;;8.53;100.00;98948.75;5003792;28;20495;-64
2022/02/22 05:48:27;;;;;;;52.58;36.78;;;;;;;10.24;100.00;99005.41;5013146;28;20096;-65
2022/02/22 05:50:52;;;;;;;49.90;36.47;;;;;;;9.92;100.00;99013.47;5012032;28;20036;-64
2022/02/22 05:53:17;;;;;;;51.90;37.33;;;;;;;10.76;100.00;99021.72;5012482;28;20470;-65
2022/02/22 05:55:43;;;;;;;53.15;35.88;;;;;;;10.75;100.00;99015.00;5012808;28;20026;-65
2022/02/22 05:58:08;;;;;;;54.30;35.03;;;;;;;10.77;100.00;99025.94;5011510;28;20116;-65
2022/02/22 06:00:34;;;;;;;48.95;35.00;;;;;;;10.94;100.00;99016.66;5011228;28;20407;-65
2022/02/22 06:02:59;;;;;;;50.80;37.10;;;;;;;10.76;100.00;99024.28;5010415;28;20500;-65
2022/02/22 06:05:25;;;;;;;50.08;35.05;;;;;;;11.00;100.00;99023.19;5012010;28;20061;-65
2022/02/22 06:07:50;;;;;;;45.60;33.78;;;;;;;11.95;100.00;99019.50;5010791;28;20026;-66
2022/02/22 06:10:16;;;;;;;42.20;31.45;;;;;;;11.10;100.00;99052.41;5011953;28;20025;-65
2022/02/22 06:12:45;;;;;;;45.63;32.40;;;;;;;10.91;100.00;99067.66;5012454;28;20030;-65
2022/02/22 06:15:13;;;;;;;38.35;29.63;;;;;;;11.16;100.00;99049.56;5012732;28;20035;-65
2022/02/22 06:17:40;;;;;;;38.70;28.55;;;;;;;12.39;100.00;99057.25;5012710;28;20569;-66
2022/02/22 06:20:06;;;;;;;39.53;29.17;;;;;;;10.20;100.00;99058.00;5012952;28;20033;-66
2022/02/22 06:22:33;;;;;;;45.03;30.35;;;;;;;9.41;100.00;99027.34;5011337;28;20521;-66
2022/02/22 06:24:59;;;;;;;42.03;28.90;;;;;;;9.09;100.00;99042.94;5012672;28;20180;-65
2022/02/22 06:27:24;;;;;;;41.90;30.20;;;;;;;9.07;100.00;98995.75;5012865;28;20117;-65
2022/02/22 06:29:50;;;;;;;39.20;29.38;;;;;;;9.43;100.00;98986.69;5012774;28;20037;-65
2022/02/22 06:32:15;;;;;;;37.58;29.10;;;;;;;9.83;100.00;99032.44;5012424;28;20482;-65
2022/02/22 06:34:42;;;;;;;39.67;29.15;;;;;;;9.48;100.00;99033.84;5011414;28;20392;-66
2022/02/22 06:37:07;;;;;;;40.40;30.35;;;;;;;9.40;100.00;99035.84;5012384;28;20041;-66
2022/02/22 06:39:33;;;;;;;43.58;31.15;;;;;;;9.58;100.00;99041.91;5012790;28;20041;-66
2022/02/22 06:41:58;;;;;;;44.97;32.10;;;;;;;9.71;100.00;99040.53;5012480;28;20546;-65
2022/02/22 06:44:23;;;;;;;44.50;30.40;;;;;;;9.34;100.00;99033.56;5012001;28;20026;-68
2022/02/22 06:46:49;;;;;;;39.75;31.10;;;;;;;9.59;100.00;99041.03;5044062;28;20030;-66
2022/02/22 06:49:14;;;;;;;38.97;29.70;;;;;;;9.91;100.00;99038.03;5044121;28;20053;-67
2022/02/22 06:51:40;;;;;;;43.05;31.05;;;;;;;9.70;100.00;99038.91;5012164;28;20474;-66
2022/02/22 06:54:05;;;;;;;45.90;32.38;;;;;;;9.79;100.00;99035.97;5012244;28;20136;-66
2022/02/22 06:56:31;;;;;;;44.70;34.28;;;;;;;10.08;100.00;98979.75;5012215;28;20116;-66
2022/02/22 06:58:56;;;;;;;44.10;31.98;;;;;;;10.07;100.00;99033.97;5011973;28;20112;-66
2022/02/22 07:01:21;;;;;;;43.67;31.42;;;;;;;10.01;100.00;99008.84;5012015;28;20124;-67
2022/02/22 07:03:47;;;;;;;42.58;29.73;;;;;;;10.42;100.00;99040.97;5012190;28;20053;-66
2022/02/22 07:06:13;;;;;;;42.42;29.88;;;;;;;10.45;100.00;99012.91;5011828;28;20088;-66
2022/02/22 07:08:38;;;;;;;38.60;27.83;;;;;;;10.22;100.00;99040.19;5012139;28;20034;-66
2022/02/22 07:11:04;;;;;;;38.95;28.58;;;;;;;10.43;100.00;99055.34;5010534;28;20030;-67
2022/02/22 07:13:29;;;;;;;36.08;27.73;;;;;;;10.87;100.00;99044.97;5011746;28;20048;-68
2022/02/22 07:15:55;;;;;;;40.83;30.17;;;;;;;10.62;100.00;99052.84;5011484;28;20421;-66
2022/02/22 07:18:20;;;;;;;39.45;29.02;;;;;;;10.21;100.00;99030.91;5011941;28;20057;-68
2022/02/22 07:20:45;;;;;;;41.88;31.77;;;;;;;9.87;100.00;99000.13;5011563;28;20034;-66
2022/02/22 07:23:11;;;;;;;40.97;31.25;;;;;;;10.33;100.00;99025.31;5011616;28;20030;-66
2022/02/22 07:25:36;;;;;;;43.90;32.22;;;;;;;10.33;100.00;99043.09;5010380;28;20037;-66
2022/02/22 07:28:03;;;;;;;40.70;29.45;;;;;;;10.42;100.00;99023.19;5011401;28;20030;-66
2022/02/22 07:30:29;;;;;;;38.97;30.23;;;;;;;10.71;100.00;99021.94;5011352;28;20045;-67
2022/02/22 07:32:57;;;;;;;39.50;30.58;;;;;;;10.87;100.00;99043.25;5012044;28;20037;-66
2022/02/22 07:35:22;;;;;;;42.67;31.80;;;;;;;10.66;100.00;99036.56;5011459;28;20041;-66
2022/02/22 07:37:48;;;;;;;37.90;29.98;;;;;;;11.01;100.00;99063.00;5011398;28;20022;-66
2022/02/22 07:40:16;;;;;;;39.50;28.98;;;;;;;11.42;100.00;99076.38;5011207;28;20030;-66
2022/02/22 07:42:41;;;;;;;36.63;28.75;;;;;;;11.31;100.00;99056.50;5011583;28;20034;-66
2022/02/22 07:45:09;;;;;;;37.38;29.98;;;;;;;11.52;100.00;99049.59;5011271;28;20063;-68
2022/02/22 07:47:34;;;;;;;39.53;28.77;;;;;;;11.70;100.00;99043.69;5011246;28;20471;-66
2022/02/22 07:49:59;;;;;;;40.03;28.38;;;;;;;11.48;100.00;99068.44;5010104;28;20079;-66
2022/02/22 07:52:26;;;;;;;32.80;24.58;;;;;;;11.62;100.00;99066.94;5011572;28;20026;-66
2022/02/22 07:54:52;;;;;;;34.20;24.77;;;;;;;11.70;100.00;99034.34;5042598;28;20080;-67
2022/02/22 07:57:18;;;;;;;29.52;23.92;;;;;;;12.24;100.00;99035.09;5011094;28;20407;-66
2022/02/22 07:59:44;;;;;;;32.63;24.45;;;;;;;12.17;100.00;99071.06;5010856;28;20041;-66
2022/02/22 08:02:09;;;;;;;32.17;24.45;;;;;;;12.49;100.00;99076.28;5010810;28;20042;-66
2022/02/22 08:04:35;;;;;;;31.58;22.55;;;;;;;12.28;100.00;99085.78;5009851;28;20033;-65
2022/02/22 08:07:00;;;;;;;29.98;21.17;;;;;;;12.70;100.00;99072.63;5011451;28;20406;-65
2022/02/22 08:09:25;;;;;;;32.13;21.90;;;;;;;12.76;100.00;99044.25;5011138;28;20539;-65
2022/02/22 08:11:51;;;;;;;29.23;21.13;;;;;;;13.92;100.00;99079.59;5010890;28;20032;-66
2022/02/22 08:14:16;;;;;;;31.75;23.13;;;;;;;13.88;100.00;99096.00;5010693;28;20025;-66
2022/02/22 08:16:42;;;;;;;31.10;21.70;;;;;;;13.65;100.00;99067.53;5010896;28;20480;-65
2022/02/22 08:19:08;;;;;;;28.45;21.15;;;;;;;13.49;100.00;99085.41;5011003;28;20022;-65
2022/02/22 08:21:34;;;;;;;28.33;20.83;;;;;;;13.54;100.00;99080.91;5025896;28;20030;-66
2022/02/22 08:23:59;;;;;;;33.65;22.15;;;;;;;14.35;100.00;99079.75;5010739;28;20038;-66
2022/02/22 08:26:25;;;;;;;28.58;20.92;;;;;;;14.62;100.00;99085.81;5010143;28;20042;-65
2022/02/22 08:28:51;;;;;;;28.52;21.20;;;;;;;14.99;100.00;99087.03;5009200;28;20509;-65
2022/02/22 08:31:16;;;;;;;24.65;20.08;;;;;;;14.89;100.00;99097.00;5009393;28;20518;-66
2022/02/22 08:33:42;;;;;;;26.30;17.92;;;;;;;14.61;100.00;99074.78;5010668;28;20026;-66
2022/02/22 08:36:09;;;;;;;25.95;18.63;;;;;;;14.58;100.00;99108.19;5010838;28;20029;-66
2022/02/22 08:38:35;;;;;;;23.60;17.38;;;;;;;14.70;100.00;99098.97;5009194;28;20028;-65
2022/02/22 08:41:01;;;;;;;24.45;16.67;;;;;;;14.57;100.00;99100.63;5010798;28;20029;-66
2022/02/22 08:43:26;;;;;;;20.75;15.90;;;;;;;14.62;100.00;99070.47;5010195;28;20038;-66
2022/02/22 08:45:51;;;;;;;24.58;15.10;;;;;;;14.78;100.00;99060.97;5010713;28;20030;-66
2022/02/22 08:48:17;;;;;;;21.15;15.35;;;;;;;15.56;100.00;99062.97;5010759;28;20458;-66
2022/02/22 08:50:42;;;;;;;18.75;14.80;;;;;;;14.60;100.00;99088.47;5010545;28;20489;-66
2022/02/22 08:53:08;;;;;;;22.90;14.93;;;;;;;14.69;100.00;99048.72;5010612;28;20406;-65
2022/02/22 08:55:34;;;;;;;21.80;14.93;;;;;;;15.26;100.00;99075.91;5010568;28;20033;-65
2022/02/22 08:58:00;;;;;;;19.42;14.48;;;;;;;15.01;100.00;99074.94;5010183;28;20493;-66
2022/02/22 09:00:27;;;;;;;21.42;14.80;;;;;;;15.69;100.00;99073.28;5003512;28;20037;-66
2022/02/22 09:02:57;;;;;;;19.50;13.00;;;;;;;15.31;100.00;99035.47;4990613;28;20046;-65
2022/02/22 09:05:24;;;;;;;16.55;13.55;;;;;;;15.72;100.00;99066.22;5005661;28;20030;-66
2022/02/22 09:07:50;;;;;;;20.10;12.07;;;;;;;15.49;100.00;99079.63;4990673;28;20400;-66
2022/02/22 09:10:16;;;;;;;17.25;12.15;;;;;;;15.96;100.00;99081.78;4990781;28;20057;-66
2022/02/22 09:12:43;;;;;;;20.60;16.70;;;;;;;16.10;100.00;99067.13;4990554;28;20500;-66
2022/02/22 09:15:10;;;;;;;13.25;10.52;;;;;;;15.90;100.00;99084.72;5005907;28;20045;-66
2022/02/22 09:17:36;;;;;;;20.48;12.70;;;;;;;16.00;100.00;99040.47;4990658;28;20121;-66
2022/02/22 09:20:03;;;;;;;13.15;10.30;;;;;;;15.96;100.00;99056.97;4990873;28;20061;-65
2022/02/22 09:22:28;;;;;;;16.88;10.68;;;;;;;15.91;100.00;99060.72;4990720;28;20181;-66
2022/02/22 09:24:54;;;;;;;14.88;10.82;;;;;;;15.88;100.00;99076.31;4990326;28;20026;-66
2022/02/22 09:27:19;;;;;;;15.32;11.68;;;;;;;16.45;100.00;99054.56;4990353;28;20089;-66
2022/02/22 09:29:45;;;;;;;14.63;11.50;;;;;;;16.19;100.00;99063.13;4990530;28;20030;-66
2022/02/22 09:32:11;;;;;;;17.60;11.80;;;;;;;15.97;100.00;99068.00;4990677;28;20084;-66
2022/02/22 09:34:37;;;;;;;14.35;10.90;;;;;;;16.10;100.00;99072.25;4990357;28;20380;-66
2022/02/22 09:37:03;;;;;;;15.63;10.85;;;;;;;16.21;100.00;99071.56;4990477;28;20034;-66
2022/02/22 09:39:30;;;;;;;13.23;9.82;;;;;;;15.47;100.00;99056.69;4992331;28;20030;-66
2022/02/22 09:41:56;;;;;;;14.02;10.32;;;;;;;15.85;100.00;99030.34;4994093;28;20034;-65
2022/02/22 09:44:22;;;;;;;10.95;9.20;;;;;;;16.00;100.00;99062.72;4993971;28;20030;-66
2022/02/22 09:46:48;;;;;;;14.65;10.35;;;;;;;15.32;100.00;99031.19;4993780;28;20029;-66
2022/02/22 09:49:14;;;;;;;14.18;10.85;;;;;;;16.18;100.00;99043.56;4993937;28;20037;-66
2022/02/22 09:51:39;;;;;;;16.20;11.00;;;;;;;16.26;100.00;99024.16;4993873;28;20030;-64
2022/02/22 09:54:05;;;;;;;12.05;9.30;;;;;;;16.18;100.00;99053.81;4993608;28;20026;-65
2022/02/22 09:56:30;;;;;;;11.43;9.18;;;;;;;16.92;100.00;99021.38;4993443;28;20038;-66
2022/02/22 09:58:55;;;;;;;13.00;8.60;;;;;;;16.02;100.00;99048.03;4993803;28;20026;-66
2022/02/22 10:01:22;;;;;;;13.98;9.63;;;;;;;16.46;100.00;99040.78;4993569;28;20472;-66
2022/02/22 10:03:58;;;;;;;26.83;15.50;;;;;;;17.02;100.00;99021.53;4993344;28;20085;-66
2022/02/22 10:06:25;;;;;;;13.65;9.32;;;;;;;16.88;100.00;99044.78;4993470;28;20062;-66
2022/02/22 10:08:56;;;;;;;18.88;10.63;;;;;;;16.87;100.00;99013.19;5008135;28;20533;-66
2022/02/22 10:11:22;;;;;;;16.48;10.32;;;;;;;17.91;100.00;99027.97;4993562;28;20038;-66
2022/02/22 10:13:48;;;;;;;16.77;11.52;;;;;;;17.39;100.00;99018.03;4993245;28;20030;-66
2022/02/22 10:16:14;;;;;;;15.82;11.02;;;;;;;17.35;100.00;99008.94;4993355;28;20049;-66
2022/02/22 10:18:53;;;;;;;14.15;10.93;;;;;;;18.20;100.00;99035.19;5008418;28;20033;-66
2022/02/22 10:21:20;;;;;;;12.18;8.95;;;;;;;17.32;100.00;99012.53;5008095;28;20535;-66
2022/02/22 10:23:46;;;;;;;15.07;9.38;;;;;;;17.94;100.00;99033.75;4993185;28;20061;-67
2022/02/22 10:26:19;;;;;;;13.18;9.65;;;;;;;17.79;100.00;99036.59;4993253;28;20098;-66
2022/02/22 10:28:45;;;;;;;13.63;10.30;;;;;;;17.84;100.00;99044.81;4993245;28;20034;-66
2022/02/22 10:31:11;;;;;;;16.58;10.60;;;;;;;17.62;100.00;99031.84;4993409;28;20049;-67
2022/02/22 10:33:44;;;;;;;12.02;9.20;;;;;;;18.01;100.00;99026.38;4993232;28;20057;-67
2022/02/22 10:36:18;;;;;;;13.52;8.90;;;;;;;18.25;100.00;99009.13;4991922;28;20566;-67
2022/02/22 10:38:44;;;;;;;11.75;8.90;;;;;;;17.03;100.00;99011.19;4992959;28;20035;-65
2022/02/22 10:41:15;;;;;;;12.98;9.32;;;;;;;17.92;100.00;98998.78;5008148;28;20030;-67
2022/02/22 10:43:53;;;;;;;10.82;9.07;;;;;;;17.42;100.00;99004.16;4992887;28;20093;-67
2022/02/22 10:46:27;;;;;;;11.63;8.93;;;;;;;17.73;100.00;99016.47;4992716;28;20117;-68
2022/02/22 10:49:12;;;;;;;14.73;9.93;;;;;;;17.74;100.00;99041.25;4992491;28;20403;-67
2022/02/22 10:51:44;;;;;;;13.38;9.10;;;;;;;18.30;100.00;99003.66;4993043;28;20034;-67
2022/02/22 10:54:19;;;;;;;11.38;9.40;;;;;;;17.67;100.00;99001.50;4991418;28;20034;-66
2022/02/22 10:56:45;;;;;;;14.00;9.85;;;;;;;17.90;100.00;99027.19;4992362;28;20041;-66
2022/02/22 10:59:10;;;;;;;10.50;8.23;;;;;;;17.19;100.00;99008.38;4992511;28;20054;-66
2022/02/22 11:01:36;;;;;;;10.15;8.65;;;;;;;18.00;100.00;99035.03;4992276;28;20060;-66
2022/02/22 11:04:03;;;;;;;12.15;9.13;;;;;;;17.47;100.00;99033.72;4992761;28;20377;-66
2022/02/22 11:06:28;;;;;;;12.75;8.85;;;;;;;17.86;100.00;99043.75;4992756;28;20511;-66
2022/02/22 11:08:56;;;;;;;12.48;8.85;;;;;;;17.84;100.00;99039.66;4992583;28;20113;-66
2022/02/22 11:11:32;;;;;;;9.98;8.25;;;;;;;18.36;100.00;98998.84;4992169;28;20495;-67